sensor_id;sensor_type;location;lat;lon;timestamp;pressure;altitude;pressure_sealevel;temperature;humidity
3260;BME280;68938;48.150;14.004;2023-10-09T00:01:11;98757.44;;;17.10;64.17
3260;BME280;68938;48.150;14.004;2023-10-09T00:03:41;98759.19;;;17.10;64.61
3260;BME280;68938;48.150;14.004;2023-10-09T00:06:09;98766.97;;;17.10;64.14
3260;BME280;68938;48.150;14.004;2023-10-09T00:08:36;98768.00;;;17.05;64.16
3260;BME280;68938;48.150;14.004;2023-10-09T00:11:03;98753.38;;;17.04;64.14
3260;BME280;68938;48.150;14.004;2023-10-09T00:13:30;98748.97;;;17.07;64.01
3260;BME280;68938;48.150;14.004;2023-10-09T00:16:03;98753.22;;;17.08;64.18
3260;BME280;68938;48.150;14.004;2023-10-09T00:18:31;98743.69;;;17.08;63.79
3260;BME280;68938;48.150;14.004;2023-10-09T00:20:59;98756.78;;;17.05;64.19
3260;BME280;68938;48.150;14.004;2023-10-09T00:23:27;98748.03;;;17.08;64.26
3260;BME280;68938;48.150;14.004;2023-10-09T00:25:55;98747.25;;;17.05;63.85
3260;BME280;68938;48.150;14.004;2023-10-09T00:28:22;98736.50;;;16.96;64.09
3260;BME280;68938;48.150;14.004;2023-10-09T00:30:49;98721.94;;;16.93;64.04
3260;BME280;68938;48.150;14.004;2023-10-09T00:33:16;98712.63;;;16.89;64.25
3260;BME280;68938;48.150;14.004;2023-10-09T00:35:43;98711.75;;;16.89;64.09
3260;BME280;68938;48.150;14.004;2023-10-09T00:38:10;98714.22;;;16.92;63.78
3260;BME280;68938;48.150;14.004;2023-10-09T00:40:37;98714.22;;;16.92;63.66
3260;BME280;68938;48.150;14.004;2023-10-09T00:43:05;98697.06;;;16.89;64.23
3260;BME280;68938;48.150;14.004;2023-10-09T00:45:32;98706.53;;;16.90;63.78
3260;BME280;68938;48.150;14.004;2023-10-09T00:48:00;98702.13;;;16.92;63.70
3260;BME280;68938;48.150;14.004;2023-10-09T00:50:27;98708.28;;;16.90;63.85
3260;BME280;68938;48.150;14.004;2023-10-09T00:52:56;98701.34;;;16.90;63.54
3260;BME280;68938;48.150;14.004;2023-10-09T00:55:24;98695.38;;;16.88;63.35
3260;BME280;68938;48.150;14.004;2023-10-09T00:57:52;98698.06;;;16.87;63.84
3260;BME280;68938;48.150;14.004;2023-10-09T01:00:19;98694.69;;;16.85;63.34
3260;BME280;68938;48.150;14.004;2023-10-09T01:02:47;98694.81;;;16.81;63.15
3260;BME280;68938;48.150;14.004;2023-10-09T01:05:16;98698.41;;;16.79;63.20
3260;BME280;68938;48.150;14.004;2023-10-09T01:07:46;98695.88;;;16.77;63.20
3260;BME280;68938;48.150;14.004;2023-10-09T01:10:14;98709.66;;;16.78;63.20
3260;BME280;68938;48.150;14.004;2023-10-09T01:12:42;98701.75;;;16.81;63.47
3260;BME280;68938;48.150;14.004;2023-10-09T01:15:10;98702.72;;;16.78;63.95
3260;BME280;68938;48.150;14.004;2023-10-09T01:17:37;98699.31;;;16.78;63.49
3260;BME280;68938;48.150;14.004;2023-10-09T01:20:05;98694.31;;;16.73;63.29
3260;BME280;68938;48.150;14.004;2023-10-09T01:22:33;98690.84;;;16.74;63.17
3260;BME280;68938;48.150;14.004;2023-10-09T01:25:00;98687.38;;;16.74;63.14
3260;BME280;68938;48.150;14.004;2023-10-09T01:27:27;98689.94;;;16.75;63.16
3260;BME280;68938;48.150;14.004;2023-10-09T01:29:54;98682.16;;;16.75;63.48
3260;BME280;68938;48.150;14.004;2023-10-09T01:32:21;98682.19;;;16.74;63.33
3260;BME280;68938;48.150;14.004;2023-10-09T01:34:48;98679.81;;;16.69;63.26
3260;BME280;68938;48.150;14.004;2023-10-09T01:37:20;98682.19;;;16.74;63.36
3260;BME280;68938;48.150;14.004;2023-10-09T01:39:49;98681.44;;;16.72;63.15
3260;BME280;68938;48.150;14.004;2023-10-09T01:42:18;98677.16;;;16.71;63.40
3260;BME280;68938;48.150;14.004;2023-10-09T01:44:46;98674.56;;;16.71;63.39
3260;BME280;68938;48.150;14.004;2023-10-09T01:47:13;98672.06;;;16.69;63.62
3260;BME280;68938;48.150;14.004;2023-10-09T01:49:40;98671.22;;;16.69;63.35
3260;BME280;68938;48.150;14.004;2023-10-09T01:52:08;98664.28;;;16.69;63.56
3260;BME280;68938;48.150;14.004;2023-10-09T01:54:39;98655.88;;;16.64;63.34
3260;BME280;68938;48.150;14.004;2023-10-09T01:57:07;98650.81;;;16.61;63.82
3260;BME280;68938;48.150;14.004;2023-10-09T01:59:36;98649.09;;;16.62;63.48
3260;BME280;68938;48.150;14.004;2023-10-09T02:02:04;98647.47;;;16.59;63.26
3260;BME280;68938;48.150;14.004;2023-10-09T02:04:32;98650.22;;;16.56;63.45
3260;BME280;68938;48.150;14.004;2023-10-09T02:06:59;98640.97;;;16.50;62.92
3260;BME280;68938;48.150;14.004;2023-10-09T02:09:26;98652.09;;;16.52;62.89
3260;BME280;68938;48.150;14.004;2023-10-09T02:11:53;98656.50;;;16.50;63.04
3260;BME280;68938;48.150;14.004;2023-10-09T02:14:20;98651.31;;;16.50;63.04
3260;BME280;68938;48.150;14.004;2023-10-09T02:16:48;98642.94;;;16.45;63.14
3260;BME280;68938;48.150;14.004;2023-10-09T02:19:15;98632.78;;;16.41;63.20
3260;BME280;68938;48.150;14.004;2023-10-09T02:21:42;98623.59;;;16.33;63.56
3260;BME280;68938;48.150;14.004;2023-10-09T02:24:12;98622.72;;;16.34;63.95
3260;BME280;68938;48.150;14.004;2023-10-09T02:26:39;98620.41;;;16.28;63.85
3260;BME280;68938;48.150;14.004;2023-10-09T02:29:07;98612.63;;;16.28;63.73
3260;BME280;68938;48.150;14.004;2023-10-09T02:31:34;98611.16;;;16.23;64.10
3260;BME280;68938;48.150;14.004;2023-10-09T02:34:01;98613.03;;;16.19;63.76
3260;BME280;68938;48.150;14.004;2023-10-09T02:36:28;98618.34;;;16.16;64.13
3260;BME280;68938;48.150;14.004;2023-10-09T02:38:55;98624.31;;;16.18;64.03
3260;BME280;68938;48.150;14.004;2023-10-09T02:41:23;98611.50;;;16.15;63.89
3260;BME280;68938;48.150;14.004;2023-10-09T02:43:50;98608.13;;;16.13;63.82
3260;BME280;68938;48.150;14.004;2023-10-09T02:46:18;98605.69;;;16.10;63.77
3260;BME280;68938;48.150;14.004;2023-10-09T02:48:47;98604.16;;;16.06;63.77
3260;BME280;68938;48.150;14.004;2023-10-09T02:51:15;98615.41;;;16.05;63.65
3260;BME280;68938;48.150;14.004;2023-10-09T02:53:42;98605.31;;;15.99;63.86
3260;BME280;68938;48.150;14.004;2023-10-09T02:56:09;98613.03;;;16.00;64.09
3260;BME280;68938;48.150;14.004;2023-10-09T02:58:36;98600.22;;;15.97;64.33
3260;BME280;68938;48.150;14.004;2023-10-09T03:01:03;98592.75;;;15.91;64.79
3260;BME280;68938;48.150;14.004;2023-10-09T03:03:30;98592.88;;;15.88;64.96
3260;BME280;68938;48.150;14.004;2023-10-09T03:05:58;98598.25;;;15.83;65.49
3260;BME280;68938;48.150;14.004;2023-10-09T03:08:25;98587.97;;;15.82;65.88
3260;BME280;68938;48.150;14.004;2023-10-09T03:10:52;98585.59;;;15.77;65.81
3260;BME280;68938;48.150;14.004;2023-10-09T03:13:19;98586.41;;;15.78;65.63
3260;BME280;68938;48.150;14.004;2023-10-09T03:15:46;98585.59;;;15.77;65.37
3260;BME280;68938;48.150;14.004;2023-10-09T03:18:13;98580.41;;;15.77;66.07
3260;BME280;68938;48.150;14.004;2023-10-09T03:20:40;98569.22;;;15.77;65.60
3260;BME280;68938;48.150;14.004;2023-10-09T03:23:07;98575.03;;;15.82;65.56
3260;BME280;68938;48.150;14.004;2023-10-09T03:25:35;98564.88;;;15.77;65.63
3260;BME280;68938;48.150;14.004;2023-10-09T03:28:02;98560.63;;;15.76;65.70
3260;BME280;68938;48.150;14.004;2023-10-09T03:30:29;98562.44;;;15.74;65.46
3260;BME280;68938;48.150;14.004;2023-10-09T03:32:56;98557.19;;;15.76;65.91
3260;BME280;68938;48.150;14.004;2023-10-09T03:35:24;98551.25;;;15.74;65.70
3260;BME280;68938;48.150;14.004;2023-10-09T03:37:56;98550.91;;;15.81;66.06
3260;BME280;68938;48.150;14.004;2023-10-09T03:40:24;98558.75;;;15.80;65.57
3260;BME280;68938;48.150;14.004;2023-10-09T03:42:52;98547.34;;;15.84;65.66
3260;BME280;68938;48.150;14.004;2023-10-09T03:45:20;98548.09;;;15.86;65.58
3260;BME280;68938;48.150;14.004;2023-10-09T03:47:47;98543.94;;;15.83;65.51
3260;BME280;68938;48.150;14.004;2023-10-09T03:50:14;98538.63;;;15.86;65.75
3260;BME280;68938;48.150;14.004;2023-10-09T03:52:41;98544.75;;;15.84;65.78
3260;BME280;68938;48.150;14.004;2023-10-09T03:55:08;98537.84;;;15.84;65.94
3260;BME280;68938;48.150;14.004;2023-10-09T03:57:35;98539.47;;;15.87;65.87
3260;BME280;68938;48.150;14.004;2023-10-09T04:00:02;98535.03;;;15.89;65.63
3260;BME280;68938;48.150;14.004;2023-10-09T04:02:30;98525.75;;;15.85;66.07
3260;BME280;68938;48.150;14.004;2023-10-09T04:04:57;98523.28;;;15.82;66.05
3260;BME280;68938;48.150;14.004;2023-10-09T04:07:24;98522.22;;;15.86;65.80
3260;BME280;68938;48.150;14.004;2023-10-09T04:09:51;98522.22;;;15.86;66.01
3260;BME280;68938;48.150;14.004;2023-10-09T04:12:18;98521.63;;;15.81;66.55
3260;BME280;68938;48.150;14.004;2023-10-09T04:14:45;98532.53;;;15.87;66.32
3260;BME280;68938;48.150;14.004;2023-10-09T04:17:12;98528.97;;;15.90;65.94
3260;BME280;68938;48.150;14.004;2023-10-09T04:19:39;98532.25;;;15.94;65.86
3260;BME280;68938;48.150;14.004;2023-10-09T04:22:06;98534.06;;;15.92;65.77
3260;BME280;68938;48.150;14.004;2023-10-09T04:24:34;98529.72;;;15.92;65.79
3260;BME280;68938;48.150;14.004;2023-10-09T04:27:01;98526.44;;;15.88;65.77
3260;BME280;68938;48.150;14.004;2023-10-09T04:29:28;98521.22;;;15.90;65.72
3260;BME280;68938;48.150;14.004;2023-10-09T04:31:56;98520.34;;;15.90;65.80
3260;BME280;68938;48.150;14.004;2023-10-09T04:34:24;98516.19;;;15.87;66.32
3260;BME280;68938;48.150;14.004;2023-10-09T04:36:51;98513.44;;;15.90;65.90
3260;BME280;68938;48.150;14.004;2023-10-09T04:39:18;98510.78;;;15.92;65.95
3260;BME280;68938;48.150;14.004;2023-10-09T04:41:45;98510.72;;;15.93;65.97
3260;BME280;68938;48.150;14.004;2023-10-09T04:44:12;98502.97;;;15.93;66.00
3260;BME280;68938;48.150;14.004;2023-10-09T04:46:40;98505.59;;;15.92;66.65
3260;BME280;68938;48.150;14.004;2023-10-09T04:49:07;98505.56;;;15.93;66.97
3260;BME280;68938;48.150;14.004;2023-10-09T04:51:34;98501.41;;;15.89;67.47
3260;BME280;68938;48.150;14.004;2023-10-09T04:54:01;98489.38;;;15.88;67.13
3260;BME280;68938;48.150;14.004;2023-10-09T04:56:28;98493.59;;;15.91;67.07
3260;BME280;68938;48.150;14.004;2023-10-09T04:58:55;98491.75;;;15.93;66.91
3260;BME280;68938;48.150;14.004;2023-10-09T05:01:22;98487.28;;;15.96;66.99
3260;BME280;68938;48.150;14.004;2023-10-09T05:03:49;98493.22;;;15.98;66.89
3260;BME280;68938;48.150;14.004;2023-10-09T05:06:16;98490.63;;;15.98;66.56
3260;BME280;68938;48.150;14.004;2023-10-09T05:08:44;98490.63;;;15.98;66.38
3260;BME280;68938;48.150;14.004;2023-10-09T05:11:11;98493.16;;;16.00;66.46
3260;BME280;68938;48.150;14.004;2023-10-09T05:13:38;98480.50;;;15.94;66.02
3260;BME280;68938;48.150;14.004;2023-10-09T05:16:16;98484.84;;;15.93;66.34
3260;BME280;68938;48.150;14.004;2023-10-09T05:18:45;98482.47;;;15.88;66.06
3260;BME280;68938;48.150;14.004;2023-10-09T05:21:13;98486.72;;;15.90;66.16
3260;BME280;68938;48.150;14.004;2023-10-09T05:23:40;98484.13;;;15.90;66.12
3260;BME280;68938;48.150;14.004;2023-10-09T05:26:08;98485.00;;;15.90;66.13
3260;BME280;68938;48.150;14.004;2023-10-09T05:28:35;98493.50;;;15.92;66.06
3260;BME280;68938;48.150;14.004;2023-10-09T05:31:02;98486.56;;;15.93;66.05
3260;BME280;68938;48.150;14.004;2023-10-09T05:33:29;98495.94;;;15.95;65.81
3260;BME280;68938;48.150;14.004;2023-10-09T05:35:56;98491.59;;;15.96;66.01
3260;BME280;68938;48.150;14.004;2023-10-09T05:38:23;98483.94;;;15.94;66.05
3260;BME280;68938;48.150;14.004;2023-10-09T05:40:51;98483.84;;;15.96;66.02
3260;BME280;68938;48.150;14.004;2023-10-09T05:43:18;98475.34;;;15.94;66.09
3260;BME280;68938;48.150;14.004;2023-10-09T05:45:45;98476.38;;;15.90;66.24
3260;BME280;68938;48.150;14.004;2023-10-09T05:48:12;98478.91;;;15.91;66.17
3260;BME280;68938;48.150;14.004;2023-10-09T05:50:40;98463.16;;;15.96;66.22
3260;BME280;68938;48.150;14.004;2023-10-09T05:53:07;98462.25;;;15.97;66.44
3260;BME280;68938;48.150;14.004;2023-10-09T05:55:34;98465.69;;;15.97;66.24
3260;BME280;68938;48.150;14.004;2023-10-09T05:58:01;98460.50;;;15.97;67.12
3260;BME280;68938;48.150;14.004;2023-10-09T06:00:28;98464.16;;;15.93;66.58
3260;BME280;68938;48.150;14.004;2023-10-09T06:02:55;98459.81;;;15.94;66.72
3260;BME280;68938;48.150;14.004;2023-10-09T06:05:28;98471.84;;;15.95;66.89
3260;BME280;68938;48.150;14.004;2023-10-09T06:07:55;98464.00;;;15.96;66.84
3260;BME280;68938;48.150;14.004;2023-10-09T06:10:22;98469.94;;;15.98;66.87
3260;BME280;68938;48.150;14.004;2023-10-09T06:12:49;98464.34;;;16.07;66.58
3260;BME280;68938;48.150;14.004;2023-10-09T06:15:21;98462.59;;;16.08;66.52
3260;BME280;68938;48.150;14.004;2023-10-09T06:17:48;98452.16;;;16.09;66.30
3260;BME280;68938;48.150;14.004;2023-10-09T06:20:16;98450.34;;;16.11;65.96
3260;BME280;68938;48.150;14.004;2023-10-09T06:22:43;98443.41;;;16.12;65.84
3260;BME280;68938;48.150;14.004;2023-10-09T06:25:10;98437.63;;;16.07;65.84
3260;BME280;68938;48.150;14.004;2023-10-09T06:27:37;98432.59;;;16.04;65.87
3260;BME280;68938;48.150;14.004;2023-10-09T06:30:05;98440.28;;;16.05;65.76
3260;BME280;68938;48.150;14.004;2023-10-09T06:32:33;98437.00;;;16.02;66.06
3260;BME280;68938;48.150;14.004;2023-10-09T06:35:01;98447.75;;;16.11;65.85
3260;BME280;68938;48.150;14.004;2023-10-09T06:37:32;98454.22;;;16.20;65.75
3260;BME280;68938;48.150;14.004;2023-10-09T06:39:59;98453.88;;;16.28;65.53
3260;BME280;68938;48.150;14.004;2023-10-09T06:42:28;98459.28;;;16.41;64.60
3260;BME280;68938;48.150;14.004;2023-10-09T06:45:00;98453.63;;;16.51;64.04
3260;BME280;68938;48.150;14.004;2023-10-09T06:47:35;98448.09;;;16.57;63.81
3260;BME280;68938;48.150;14.004;2023-10-09T06:50:02;98451.25;;;16.64;63.05
3260;BME280;68938;48.150;14.004;2023-10-09T06:52:30;98451.03;;;16.69;61.95
3260;BME280;68938;48.150;14.004;2023-10-09T06:54:57;98451.63;;;16.74;61.91
3260;BME280;68938;48.150;14.004;2023-10-09T06:57:24;98465.16;;;16.80;61.53
3260;BME280;68938;48.150;14.004;2023-10-09T06:59:51;98462.16;;;16.88;61.16
3260;BME280;68938;48.150;14.004;2023-10-09T07:02:18;98457.50;;;16.95;61.30
3260;BME280;68938;48.150;14.004;2023-10-09T07:04:45;98464.97;;;17.01;61.52
3260;BME280;68938;48.150;14.004;2023-10-09T07:07:13;98462.09;;;17.07;61.84
3260;BME280;68938;48.150;14.004;2023-10-09T07:09:40;98470.59;;;17.09;61.37
3260;BME280;68938;48.150;14.004;2023-10-09T07:12:09;98467.16;;;17.09;61.17
3260;BME280;68938;48.150;14.004;2023-10-09T07:14:37;98469.22;;;17.19;60.84
3260;BME280;68938;48.150;14.004;2023-10-09T07:17:09;98462.13;;;17.23;60.79
3260;BME280;68938;48.150;14.004;2023-10-09T07:19:36;98460.22;;;17.26;60.67
3260;BME280;68938;48.150;14.004;2023-10-09T07:22:04;98463.94;;;17.38;60.82
3260;BME280;68938;48.150;14.004;2023-10-09T07:24:31;98467.72;;;17.48;60.22
3260;BME280;68938;48.150;14.004;2023-10-09T07:26:58;98457.91;;;17.53;59.20
3260;BME280;68938;48.150;14.004;2023-10-09T07:29:25;98461.13;;;17.59;59.31
3260;BME280;68938;48.150;14.004;2023-10-09T07:31:52;98462.31;;;17.69;59.15
3260;BME280;68938;48.150;14.004;2023-10-09T07:34:19;98463.06;;;17.71;58.99
3260;BME280;68938;48.150;14.004;2023-10-09T07:36:46;98467.16;;;17.75;59.00
3260;BME280;68938;48.150;14.004;2023-10-09T07:39:13;98476.38;;;17.81;59.26
3260;BME280;68938;48.150;14.004;2023-10-09T07:41:41;98476.16;;;17.85;58.68
3260;BME280;68938;48.150;14.004;2023-10-09T07:44:08;98476.75;;;17.90;58.55
3260;BME280;68938;48.150;14.004;2023-10-09T07:46:35;98473.81;;;17.96;57.69
3260;BME280;68938;48.150;14.004;2023-10-09T07:49:04;98476.50;;;17.95;57.40
3260;BME280;68938;48.150;14.004;2023-10-09T07:51:31;98465.75;;;18.01;57.45
3260;BME280;68938;48.150;14.004;2023-10-09T07:53:59;98464.34;;;18.11;57.06
3260;BME280;68938;48.150;14.004;2023-10-09T07:56:27;98471.78;;;18.17;56.90
3260;BME280;68938;48.150;14.004;2023-10-09T07:58:54;98468.47;;;18.15;56.65
3260;BME280;68938;48.150;14.004;2023-10-09T08:01:21;98494.00;;;18.23;57.25
3260;BME280;68938;48.150;14.004;2023-10-09T08:03:49;98481.75;;;18.25;56.83
3260;BME280;68938;48.150;14.004;2023-10-09T08:06:17;98481.41;;;18.31;56.75
3260;BME280;68938;48.150;14.004;2023-10-09T08:08:44;98487.03;;;18.39;56.67
3260;BME280;68938;48.150;14.004;2023-10-09T08:11:11;98481.41;;;18.47;56.12
3260;BME280;68938;48.150;14.004;2023-10-09T08:13:38;98482.78;;;18.53;56.55
3260;BME280;68938;48.150;14.004;2023-10-09T08:16:05;98466.69;;;18.62;56.80
3260;BME280;68938;48.150;14.004;2023-10-09T08:18:33;98474.97;;;18.68;56.61
3260;BME280;68938;48.150;14.004;2023-10-09T08:21:02;98473.81;;;18.74;56.04
3260;BME280;68938;48.150;14.004;2023-10-09T08:23:29;98459.91;;;18.75;55.96
3260;BME280;68938;48.150;14.004;2023-10-09T08:28:30;98465.22;;;18.88;55.61
3260;BME280;68938;48.150;14.004;2023-10-09T08:30:57;98470.16;;;18.92;55.97
3260;BME280;68938;48.150;14.004;2023-10-09T08:33:24;98481.13;;;18.98;55.36
3260;BME280;68938;48.150;14.004;2023-10-09T08:35:56;98475.81;;;18.99;55.68
3260;BME280;68938;48.150;14.004;2023-10-09T08:38:23;98468.69;;;19.03;55.19
3260;BME280;68938;48.150;14.004;2023-10-09T08:40:51;98461.50;;;18.92;55.87
3260;BME280;68938;48.150;14.004;2023-10-09T08:43:20;98467.09;;;19.00;55.85
3260;BME280;68938;48.150;14.004;2023-10-09T08:45:51;98472.75;;;19.07;55.94
3260;BME280;68938;48.150;14.004;2023-10-09T08:48:20;98479.38;;;19.12;55.74
3260;BME280;68938;48.150;14.004;2023-10-09T08:50:49;98478.22;;;18.88;56.04
3260;BME280;68938;48.150;14.004;2023-10-09T08:53:16;98475.34;;;18.92;56.49
3260;BME280;68938;48.150;14.004;2023-10-09T08:55:43;98482.38;;;18.90;56.38
3260;BME280;68938;48.150;14.004;2023-10-09T08:58:11;98484.28;;;19.03;56.43
3260;BME280;68938;48.150;14.004;2023-10-09T09:00:39;98478.63;;;19.10;56.70
3260;BME280;68938;48.150;14.004;2023-10-09T09:03:06;98478.84;;;19.22;56.60
3260;BME280;68938;48.150;14.004;2023-10-09T09:05:34;98473.06;;;19.31;57.01
3260;BME280;68938;48.150;14.004;2023-10-09T09:08:01;98473.63;;;19.22;56.98
3260;BME280;68938;48.150;14.004;2023-10-09T09:10:29;98471.50;;;19.42;56.00
3260;BME280;68938;48.150;14.004;2023-10-09T09:12:56;98475.03;;;19.56;56.57
3260;BME280;68938;48.150;14.004;2023-10-09T09:15:24;98474.22;;;19.70;56.44
3260;BME280;68938;48.150;14.004;2023-10-09T09:17:51;98482.56;;;19.75;55.73
3260;BME280;68938;48.150;14.004;2023-10-09T09:20:20;98477.66;;;19.70;56.10
3260;BME280;68938;48.150;14.004;2023-10-09T09:22:55;98486.28;;;19.85;56.04
3260;BME280;68938;48.150;14.004;2023-10-09T09:25:24;98478.91;;;19.92;55.37
3260;BME280;68938;48.150;14.004;2023-10-09T09:27:51;98484.91;;;20.06;55.69
3260;BME280;68938;48.150;14.004;2023-10-09T09:30:23;98482.38;;;20.19;55.75
3260;BME280;68938;48.150;14.004;2023-10-09T09:32:54;98481.81;;;20.28;55.35
3260;BME280;68938;48.150;14.004;2023-10-09T09:35:21;98479.25;;;20.41;55.74
3260;BME280;68938;48.150;14.004;2023-10-09T09:37:53;98475.56;;;20.58;55.41
3260;BME280;68938;48.150;14.004;2023-10-09T09:40:20;98474.25;;;20.65;55.53
3260;BME280;68938;48.150;14.004;2023-10-09T09:42:49;98474.44;;;20.75;55.60
3260;BME280;68938;48.150;14.004;2023-10-09T09:45:16;98472.19;;;20.83;55.10
3260;BME280;68938;48.150;14.004;2023-10-09T09:47:44;98474.16;;;20.79;55.48
3260;BME280;68938;48.150;14.004;2023-10-09T09:50:12;98479.72;;;21.00;54.74
3260;BME280;68938;48.150;14.004;2023-10-09T09:52:39;98478.69;;;21.16;54.63
3260;BME280;68938;48.150;14.004;2023-10-09T09:55:09;98482.50;;;21.37;53.70
3260;BME280;68938;48.150;14.004;2023-10-09T09:57:37;98482.38;;;21.51;53.36
3260;BME280;68938;48.150;14.004;2023-10-09T10:00:04;98489.94;;;21.67;53.54
3260;BME280;68938;48.150;14.004;2023-10-09T10:02:36;98493.09;;;21.72;53.25
3260;BME280;68938;48.150;14.004;2023-10-09T10:05:08;98485.75;;;21.77;53.13
3260;BME280;68938;48.150;14.004;2023-10-09T10:07:37;98483.25;;;21.89;53.60
3260;BME280;68938;48.150;14.004;2023-10-09T10:13:03;98479.09;;;21.73;53.64
3260;BME280;68938;48.150;14.004;2023-10-09T10:18:56;98473.03;;;22.10;54.56
3260;BME280;68938;48.150;14.004;2023-10-09T10:21:29;98472.16;;;22.22;54.54
3260;BME280;68938;48.150;14.004;2023-10-09T10:23:56;98463.09;;;22.39;54.41
3260;BME280;68938;48.150;14.004;2023-10-09T10:26:23;98464.00;;;22.51;53.96
3260;BME280;68938;48.150;14.004;2023-10-09T10:29:16;98468.16;;;22.88;51.88
3260;BME280;68938;48.150;14.004;2023-10-09T10:31:58;98468.81;;;23.14;52.17
3260;BME280;68938;48.150;14.004;2023-10-09T10:34:53;98468.88;;;23.37;52.01
3260;BME280;68938;48.150;14.004;2023-10-09T10:37:33;98471.38;;;23.50;51.56
3260;BME280;68938;48.150;14.004;2023-10-09T10:40:01;98468.50;;;23.64;49.82
3260;BME280;68938;48.150;14.004;2023-10-09T10:42:28;98470.22;;;23.76;49.29
3260;BME280;68938;48.150;14.004;2023-10-09T10:44:55;98467.09;;;23.94;49.18
3260;BME280;68938;48.150;14.004;2023-10-09T10:47:26;98469.78;;;24.15;48.96
3260;BME280;68938;48.150;14.004;2023-10-09T10:49:59;98461.38;;;24.32;47.89
3260;BME280;68938;48.150;14.004;2023-10-09T10:52:28;98460.72;;;24.51;47.47
3260;BME280;68938;48.150;14.004;2023-10-09T10:55:07;98456.38;;;24.40;46.24
3260;BME280;68938;48.150;14.004;2023-10-09T10:57:38;98444.50;;;24.25;46.22
3260;BME280;68938;48.150;14.004;2023-10-09T11:00:11;98440.53;;;24.42;46.22
3260;BME280;68938;48.150;14.004;2023-10-09T11:02:43;98435.72;;;24.47;44.93
3260;BME280;68938;48.150;14.004;2023-10-09T11:05:11;98435.72;;;24.47;44.89
3260;BME280;68938;48.150;14.004;2023-10-09T11:07:38;98442.34;;;24.62;44.83
3260;BME280;68938;48.150;14.004;2023-10-09T11:10:06;98446.81;;;24.71;45.05
3260;BME280;68938;48.150;14.004;2023-10-09T11:15:08;98440.72;;;24.71;44.57
3260;BME280;68938;48.150;14.004;2023-10-09T11:17:36;98435.47;;;24.71;44.13
3260;BME280;68938;48.150;14.004;2023-10-09T11:20:04;98444.00;;;24.84;44.00
3260;BME280;68938;48.150;14.004;2023-10-09T11:22:32;98436.19;;;24.94;43.17
3260;BME280;68938;48.150;14.004;2023-10-09T11:24:59;98434.63;;;24.91;42.36
3260;BME280;68938;48.150;14.004;2023-10-09T11:27:27;98429.47;;;24.59;42.13
3260;BME280;68938;48.150;14.004;2023-10-09T11:29:54;98429.22;;;24.83;41.68
3260;BME280;68938;48.150;14.004;2023-10-09T11:32:21;98420.44;;;24.94;41.09
3260;BME280;68938;48.150;14.004;2023-10-09T11:35:08;98420.59;;;25.13;40.66
3260;BME280;68938;48.150;14.004;2023-10-09T11:37:39;98432.28;;;24.88;39.76
3260;BME280;68938;48.150;14.004;2023-10-09T11:40:06;98438.81;;;24.73;39.16
3260;BME280;68938;48.150;14.004;2023-10-09T11:42:34;98432.28;;;24.67;39.14
3260;BME280;68938;48.150;14.004;2023-10-09T11:45:03;98445.03;;;24.93;39.46
3260;BME280;68938;48.150;14.004;2023-10-09T11:47:34;98440.72;;;24.92;39.23
3260;BME280;68938;48.150;14.004;2023-10-09T11:50:01;98435.16;;;25.06;39.10
3260;BME280;68938;48.150;14.004;2023-10-09T11:52:31;98433.44;;;25.16;38.46
3260;BME280;68938;48.150;14.004;2023-10-09T11:54:59;98435.69;;;25.21;38.74
3260;BME280;68938;48.150;14.004;2023-10-09T11:57:26;98417.72;;;25.26;39.07
3260;BME280;68938;48.150;14.004;2023-10-09T11:59:53;98426.09;;;25.41;38.91
3260;BME280;68938;48.150;14.004;2023-10-09T12:02:20;98436.44;;;25.42;39.48
3260;BME280;68938;48.150;14.004;2023-10-09T12:04:48;98440.88;;;25.42;39.56
3260;BME280;68938;48.150;14.004;2023-10-09T12:07:15;98433.50;;;25.36;38.91
3260;BME280;68938;48.150;14.004;2023-10-09T12:09:42;98420.94;;;25.39;39.88
3260;BME280;68938;48.150;14.004;2023-10-09T12:12:09;98426.91;;;25.41;39.99
3260;BME280;68938;48.150;14.004;2023-10-09T12:14:36;98429.97;;;25.16;40.26
3260;BME280;68938;48.150;14.004;2023-10-09T12:17:04;98437.53;;;25.30;40.71
3260;BME280;68938;48.150;14.004;2023-10-09T12:19:37;98432.63;;;25.25;40.48
3260;BME280;68938;48.150;14.004;2023-10-09T12:22:06;98437.16;;;25.14;41.05
3260;BME280;68938;48.150;14.004;2023-10-09T12:24:35;98434.19;;;25.28;41.46
3260;BME280;68938;48.150;14.004;2023-10-09T12:27:02;98422.75;;;25.39;41.01
3260;BME280;68938;48.150;14.004;2023-10-09T12:29:29;98421.41;;;25.44;41.01
3260;BME280;68938;48.150;14.004;2023-10-09T12:31:56;98407.03;;;25.48;41.07
3260;BME280;68938;48.150;14.004;2023-10-09T12:34:27;98421.75;;;25.61;41.20
3260;BME280;68938;48.150;14.004;2023-10-09T12:36:54;98417.16;;;25.63;40.97
3260;BME280;68938;48.150;14.004;2023-10-09T12:39:22;98416.34;;;25.62;41.05
3260;BME280;68938;48.150;14.004;2023-10-09T12:41:50;98417.09;;;25.43;41.03
3260;BME280;68938;48.150;14.004;2023-10-09T12:44:17;98414.25;;;25.25;41.18
3260;BME280;68938;48.150;14.004;2023-10-09T12:46:44;98412.19;;;25.29;41.29
3260;BME280;68938;48.150;14.004;2023-10-09T12:49:12;98414.09;;;25.17;41.91
3260;BME280;68938;48.150;14.004;2023-10-09T12:51:39;98381.91;;;25.25;41.43
3260;BME280;68938;48.150;14.004;2023-10-09T12:54:06;98356.19;;;25.19;40.78
3260;BME280;68938;48.150;14.004;2023-10-09T12:56:34;98376.63;;;25.15;40.82
3260;BME280;68938;48.150;14.004;2023-10-09T12:59:01;98372.59;;;25.11;40.98
3260;BME280;68938;48.150;14.004;2023-10-09T13:01:29;98369.97;;;25.11;40.88
3260;BME280;68938;48.150;14.004;2023-10-09T13:03:56;98385.53;;;25.24;41.11
3260;BME280;68938;48.150;14.004;2023-10-09T13:06:23;98401.97;;;25.05;41.75
3260;BME280;68938;48.150;14.004;2023-10-09T13:08:50;98392.91;;;24.88;41.78
3260;BME280;68938;48.150;14.004;2023-10-09T13:11:17;98436.63;;;24.78;42.15
3260;BME280;68938;48.150;14.004;2023-10-09T13:13:45;98425.88;;;24.81;42.27
3260;BME280;68938;48.150;14.004;2023-10-09T13:16:14;98403.81;;;24.83;42.20